createdAt,value
2018-02-03T00:01:26.221Z,10.73
2018-02-03T00:03:55.422Z,12.37
2018-02-03T00:06:23.000Z,10.70
2018-02-03T00:08:51.279Z,10.90
2018-02-03T00:11:19.557Z,9.23
2018-02-03T00:13:47.839Z,11.07
2018-02-03T00:16:16.134Z,11.15
2018-02-03T00:18:43.680Z,9.70
2018-02-03T00:21:11.971Z,10.00
2018-02-03T00:23:40.283Z,11.12
2018-02-03T00:26:07.815Z,10.05
2018-02-03T00:28:36.152Z,10.33
2018-02-03T00:31:03.643Z,10.32
2018-02-03T00:33:31.919Z,12.20
2018-02-03T00:35:59.483Z,10.07
2018-02-03T00:38:26.967Z,11.57
2018-02-03T00:40:55.243Z,10.37
2018-02-03T00:43:23.505Z,12.07
2018-02-03T00:45:51.120Z,11.40
2018-02-03T00:48:18.773Z,11.30
2018-02-03T00:50:46.265Z,11.57
2018-02-03T00:53:13.794Z,9.35
2018-02-03T00:55:41.322Z,8.30
2018-02-03T00:58:08.879Z,9.30
2018-02-03T01:00:36.404Z,8.65
2018-02-03T01:03:03.951Z,8.23
2018-02-03T01:05:32.240Z,9.60
2018-02-03T01:07:59.774Z,9.15
2018-02-03T01:10:28.105Z,9.45
2018-02-03T01:12:55.667Z,8.63
2018-02-03T01:15:23.202Z,9.35
2018-02-03T01:17:50.789Z,9.75
2018-02-03T01:20:18.314Z,10.50
2018-02-03T01:22:46.600Z,9.40
2018-02-03T01:25:14.908Z,9.25
2018-02-03T01:27:42.460Z,8.75
2018-02-03T01:30:09.988Z,9.25
2018-02-03T01:32:37.843Z,9.77
2018-02-03T01:35:05.478Z,9.48
2018-02-03T01:37:33.013Z,8.73
2018-02-03T01:40:01.376Z,10.43
2018-02-03T01:42:29.024Z,10.07
2018-02-03T01:44:56.640Z,10.20
2018-02-03T01:47:24.153Z,10.52
2018-02-03T01:49:52.435Z,9.57
2018-02-03T01:52:19.962Z,8.77
2018-02-03T01:54:47.493Z,11.02
2018-02-03T01:57:15.770Z,9.30
2018-02-03T01:59:44.280Z,9.87
2018-02-03T02:02:11.805Z,9.50
2018-02-03T02:04:39.526Z,10.40
2018-02-03T02:07:07.095Z,9.40
2018-02-03T02:09:37.239Z,9.43
2018-02-03T02:12:04.773Z,9.68
2018-02-03T02:14:32.372Z,11.73
2018-02-03T02:16:59.910Z,10.02
2018-02-03T02:19:27.522Z,10.10
2018-02-03T02:21:55.004Z,11.27
2018-02-03T02:24:23.323Z,10.73
2018-02-03T02:26:50.887Z,9.87
2018-02-03T02:29:18.407Z,10.50
2018-02-03T02:31:46.684Z,11.27
2018-02-03T02:34:15.260Z,11.00
2018-02-03T02:36:42.788Z,11.55
2018-02-03T02:39:10.324Z,12.25
2018-02-03T02:41:37.967Z,12.73
2018-02-03T02:44:06.263Z,14.57
2018-02-03T02:46:34.550Z,12.88
2018-02-03T02:49:02.083Z,13.05
2018-02-03T02:51:30.777Z,12.55
2018-02-03T02:53:58.326Z,12.70
2018-02-03T02:56:25.863Z,12.15
2018-02-03T02:58:53.414Z,13.80
2018-02-03T03:01:20.927Z,12.65
2018-02-03T03:03:48.462Z,12.90
2018-02-03T03:06:15.956Z,12.82
2018-02-03T03:08:43.433Z,12.40
2018-02-03T03:11:12.497Z,12.90
2018-02-03T03:13:40.027Z,12.45
2018-02-03T03:16:07.567Z,12.48
2018-02-03T03:18:35.842Z,12.93
2018-02-03T03:21:04.157Z,13.65
2018-02-03T03:23:31.986Z,11.85
2018-02-03T03:26:00.310Z,12.15
2018-02-03T03:28:28.077Z,12.18
2018-02-03T03:30:55.606Z,13.38
2018-02-03T03:33:23.885Z,13.57
2018-02-03T03:35:52.225Z,10.65
2018-02-03T03:38:19.722Z,11.47
2018-02-03T03:40:47.250Z,11.40
2018-02-03T03:43:14.772Z,12.70
2018-02-03T03:45:42.334Z,11.23
2018-02-03T03:48:10.601Z,12.20
2018-02-03T03:50:38.102Z,11.75
2018-02-03T03:53:05.642Z,12.13
2018-02-03T03:55:33.961Z,11.25
2018-02-03T03:58:01.483Z,10.90
2018-02-03T04:00:29.779Z,12.63
2018-02-03T04:02:57.406Z,11.80
2018-02-03T04:05:25.331Z,12.52
2018-02-03T04:07:52.887Z,11.80
2018-02-03T04:10:20.484Z,11.27
2018-02-03T04:12:47.991Z,12.15
2018-02-03T04:15:16.303Z,12.15
2018-02-03T04:17:43.828Z,10.18
2018-02-03T04:20:12.148Z,12.73
2018-02-03T04:22:39.680Z,11.02
2018-02-03T04:25:08.009Z,11.95
2018-02-03T04:27:35.561Z,11.88
2018-02-03T04:30:03.127Z,10.88
2018-02-03T04:32:30.652Z,11.30
2018-02-03T04:34:58.936Z,11.20
2018-02-03T04:37:27.241Z,11.70
2018-02-03T04:39:54.772Z,11.55
2018-02-03T04:42:22.351Z,10.65
2018-02-03T04:44:50.642Z,11.65
2018-02-03T04:47:18.205Z,11.63
2018-02-03T04:49:46.503Z,10.32
2018-02-03T04:52:14.035Z,10.80
2018-02-03T04:54:42.320Z,9.13
2018-02-03T04:57:10.598Z,8.80
2018-02-03T04:59:38.867Z,8.40
2018-02-03T05:02:06.416Z,8.15
2018-02-03T05:04:33.958Z,8.23
2018-02-03T05:07:01.477Z,7.55
2018-02-03T05:09:30.024Z,7.25
2018-02-03T05:11:57.552Z,7.50
2018-02-03T05:14:25.063Z,7.15
2018-02-03T05:16:52.615Z,11.43
2018-02-03T05:19:20.121Z,7.60
2018-02-03T05:21:48.412Z,8.20
2018-02-03T05:24:15.926Z,7.30
2018-02-03T05:26:43.510Z,9.07
2018-02-03T05:29:11.827Z,9.80
2018-02-03T05:31:39.392Z,8.20
2018-02-03T05:34:07.025Z,8.32
2018-02-03T05:36:35.361Z,7.87
2018-02-03T05:39:02.894Z,7.93
2018-02-03T05:41:30.424Z,8.35
2018-02-03T05:43:58.724Z,8.52
2018-02-03T05:46:27.017Z,7.15
2018-02-03T05:48:55.358Z,8.20
2018-02-03T05:51:22.882Z,7.55
2018-02-03T05:53:50.405Z,7.10
2018-02-03T05:56:18.717Z,6.97
2018-02-03T05:58:46.251Z,7.15
2018-02-03T06:01:13.822Z,7.22
2018-02-03T06:03:42.106Z,7.50
2018-02-03T06:06:10.420Z,7.35
2018-02-03T06:08:37.978Z,7.93
2018-02-03T06:11:05.508Z,7.32
2018-02-03T06:13:33.813Z,7.80
2018-02-03T06:16:01.372Z,7.28
2018-02-03T06:18:29.671Z,7.55
2018-02-03T06:20:57.173Z,7.75
2018-02-03T06:23:24.691Z,8.05
2018-02-03T06:25:52.233Z,9.05
2018-02-03T06:28:21.425Z,7.87
2018-02-03T06:30:49.698Z,8.25
2018-02-03T06:33:17.319Z,7.90
2018-02-03T06:35:44.843Z,7.03
2018-02-03T06:38:13.589Z,6.60
2018-02-03T06:40:41.140Z,7.43
2018-02-03T06:43:08.785Z,5.50
2018-02-03T06:45:36.324Z,5.82
2018-02-03T06:48:04.620Z,5.10
2018-02-03T06:50:32.890Z,5.40
2018-02-03T06:53:01.170Z,4.43
2018-02-03T06:55:29.434Z,5.57
2018-02-03T06:57:57.028Z,5.18
2018-02-03T07:00:24.530Z,4.80
2018-02-03T07:02:52.059Z,6.90
2018-02-03T07:05:19.581Z,6.30
2018-02-03T07:07:47.115Z,6.50
2018-02-03T07:10:14.626Z,6.05
2018-02-03T07:12:42.153Z,4.93
2018-02-03T07:15:09.651Z,5.50
2018-02-03T07:17:37.967Z,5.90
2018-02-03T07:20:05.476Z,6.30
2018-02-03T07:22:33.009Z,7.25
2018-02-03T07:25:00.511Z,6.32
2018-02-03T07:27:28.049Z,7.05
2018-02-03T07:29:55.580Z,6.65
2018-02-03T07:32:23.083Z,6.25
2018-02-03T07:34:50.666Z,6.80
2018-02-03T07:37:18.180Z,7.15
2018-02-03T07:39:45.716Z,6.15
2018-02-03T07:42:13.989Z,6.28
2018-02-03T07:44:42.320Z,7.30
2018-02-03T07:47:09.825Z,7.10
2018-02-03T07:49:37.359Z,7.15
2018-02-03T07:52:04.872Z,6.90
2018-02-03T07:54:33.193Z,7.20
2018-02-03T07:57:00.720Z,6.80
2018-02-03T07:59:28.993Z,6.43
2018-02-03T08:01:57.302Z,6.90
2018-02-03T08:04:24.831Z,7.05
2018-02-03T08:06:53.169Z,6.00
2018-02-03T08:09:20.700Z,6.78
2018-02-03T08:11:48.230Z,5.55
2018-02-03T08:14:16.522Z,6.35
2018-02-03T08:16:44.816Z,5.57
2018-02-03T08:19:13.124Z,5.37
2018-02-03T08:21:40.684Z,4.78
2018-02-03T08:24:08.222Z,5.40
2018-02-03T08:26:36.541Z,4.90
2018-02-03T08:29:04.103Z,5.50
2018-02-03T08:31:31.641Z,5.40
2018-02-03T08:33:59.943Z,5.70
2018-02-03T08:36:27.464Z,5.80
2018-02-03T08:38:55.086Z,5.43
2018-02-03T08:41:22.648Z,4.90
2018-02-03T08:43:50.202Z,4.03
2018-02-03T08:46:17.738Z,6.32
2018-02-03T08:48:46.015Z,4.78
2018-02-03T08:51:14.323Z,4.70
2018-02-03T08:53:41.866Z,5.50
2018-02-03T08:56:10.158Z,4.97
2018-02-03T08:58:37.692Z,5.12
2018-02-03T09:01:05.971Z,3.55
2018-02-03T09:03:34.258Z,2.95
2018-02-03T09:06:02.630Z,3.37
2018-02-03T09:08:30.926Z,3.03
2018-02-03T09:10:58.513Z,2.67
2018-02-03T09:13:26.047Z,2.47
2018-02-03T09:15:54.369Z,2.28
2018-02-03T09:18:21.978Z,2.55
2018-02-03T09:20:49.532Z,2.97
2018-02-03T09:23:17.095Z,2.83
2018-02-03T09:25:44.631Z,2.55
2018-02-03T09:28:12.204Z,2.87
2018-02-03T09:30:39.816Z,2.90
2018-02-03T09:33:07.920Z,3.60
2018-02-03T09:35:35.552Z,4.55
2018-02-03T09:38:03.113Z,4.40
2018-02-03T09:40:30.641Z,3.95
2018-02-03T09:42:58.157Z,4.10
2018-02-03T09:45:26.439Z,4.07
2018-02-03T09:47:54.980Z,2.97
2018-02-03T09:50:22.554Z,3.87
2018-02-03T09:52:50.936Z,3.33
2018-02-03T09:55:18.481Z,2.60
2018-02-03T09:57:46.010Z,3.30
2018-02-03T10:00:13.603Z,4.15
2018-02-03T10:02:41.122Z,4.50
2018-02-03T10:05:08.643Z,4.37
2018-02-03T10:07:36.169Z,4.18
2018-02-03T10:10:04.490Z,3.40
2018-02-03T10:12:32.046Z,3.80
2018-02-03T10:14:59.568Z,4.15
2018-02-03T10:17:27.194Z,4.55
2018-02-03T10:19:54.732Z,5.72
2018-02-03T10:22:22.283Z,6.75
2018-02-03T10:24:49.844Z,5.68
2018-02-03T10:27:18.177Z,6.30
2018-02-03T10:29:45.702Z,4.62
2018-02-03T10:32:13.272Z,6.95
2018-02-03T10:34:41.303Z,5.00
2018-02-03T10:37:09.610Z,5.10
2018-02-03T10:39:37.449Z,3.87
2018-02-03T10:42:05.754Z,5.35
2018-02-03T10:44:34.042Z,4.20
2018-02-03T10:47:01.561Z,4.07
2018-02-03T10:49:29.101Z,4.20
2018-02-03T10:51:56.680Z,3.65
2018-02-03T10:54:24.342Z,4.22
2018-02-03T10:56:51.874Z,4.90
2018-02-03T10:59:19.456Z,4.60
2018-02-03T11:01:46.986Z,5.90
2018-02-03T11:04:15.467Z,6.50
2018-02-03T11:06:43.805Z,4.82
2018-02-03T11:09:11.394Z,6.03
2018-02-03T11:11:38.928Z,5.47
2018-02-03T11:14:07.440Z,6.40
2018-02-03T11:16:35.000Z,4.70
2018-02-03T11:19:02.667Z,8.15
2018-02-03T11:21:30.242Z,5.55
2018-02-03T11:23:57.799Z,4.43
2018-02-03T11:26:26.301Z,5.75
2018-02-03T11:28:54.742Z,5.43
2018-02-03T11:31:22.288Z,6.55
2018-02-03T11:33:49.797Z,8.27
2018-02-03T11:36:17.352Z,8.05
2018-02-03T11:38:45.565Z,6.55
2018-02-03T11:41:13.926Z,5.65
2018-02-03T11:43:42.358Z,6.25
2018-02-03T11:46:09.937Z,5.30
2018-02-03T11:48:37.499Z,5.68
2018-02-03T11:51:05.071Z,5.15
2018-02-03T11:53:32.595Z,5.03
2018-02-03T11:56:01.083Z,4.80
2018-02-03T11:58:29.371Z,5.35
2018-02-03T12:00:56.996Z,6.82
2018-02-03T12:03:24.634Z,6.45
2018-02-03T12:05:52.246Z,6.72
2018-02-03T12:08:19.774Z,6.25
2018-02-03T12:10:47.389Z,5.30
2018-02-03T12:13:15.690Z,6.00
2018-02-03T12:15:43.295Z,6.25
2018-02-03T12:18:10.840Z,6.15
2018-02-03T12:20:38.405Z,5.30
2018-02-03T12:23:05.911Z,7.37
2018-02-03T12:25:33.468Z,8.18
2018-02-03T12:28:01.793Z,8.77
2018-02-03T12:30:29.399Z,7.82
2018-02-03T12:32:56.910Z,8.20
2018-02-03T12:35:24.443Z,7.80
2018-02-03T12:37:51.968Z,8.90
2018-02-03T12:40:19.517Z,7.80
2018-02-03T12:42:47.626Z,8.30
2018-02-03T12:45:15.162Z,8.13
2018-02-03T12:47:42.677Z,8.40
2018-02-03T12:50:10.198Z,7.03
2018-02-03T12:52:37.726Z,8.32
2018-02-03T12:55:06.069Z,6.80
2018-02-03T12:57:33.574Z,8.00
2018-02-03T13:00:01.180Z,7.90
2018-02-03T13:02:28.679Z,6.12
2018-02-03T13:04:56.999Z,6.10
2018-02-03T13:07:24.526Z,5.87
2018-02-03T13:09:52.839Z,5.43
2018-02-03T13:12:20.460Z,5.90
2018-02-03T13:14:48.008Z,5.87
2018-02-03T13:17:15.654Z,6.40
2018-02-03T13:19:43.242Z,6.37
2018-02-03T13:22:10.778Z,6.72
2018-02-03T13:24:38.294Z,5.62
2018-02-03T13:27:06.599Z,4.60
2018-02-03T13:29:34.160Z,4.80
2018-02-03T13:32:01.706Z,5.10
2018-02-03T13:34:30.009Z,5.57
2018-02-03T13:36:57.549Z,4.37
2018-02-03T13:39:25.115Z,4.97
2018-02-03T13:41:52.630Z,4.93
2018-02-03T13:44:20.155Z,4.50
2018-02-03T13:46:47.708Z,4.40
2018-02-03T13:49:15.999Z,5.05
2018-02-03T13:51:43.594Z,4.05
2018-02-03T13:54:11.111Z,5.05
2018-02-03T13:56:39.431Z,4.62
2018-02-03T13:59:06.939Z,4.55
2018-02-03T14:01:34.462Z,3.95
2018-02-03T14:04:01.974Z,4.62
2018-02-03T14:06:29.498Z,4.68
2018-02-03T14:08:57.024Z,5.20
2018-02-03T14:11:25.350Z,3.85
2018-02-03T14:13:52.882Z,4.20
2018-02-03T14:16:20.911Z,4.55
2018-02-03T14:18:48.460Z,4.10
2018-02-03T14:21:16.001Z,4.12
2018-02-03T14:23:58.415Z,5.00
2018-02-03T14:26:25.977Z,4.70
2018-02-03T14:28:53.552Z,5.15
2018-02-03T14:31:21.221Z,4.62
2018-02-03T14:33:49.534Z,4.53
2018-02-03T14:36:17.076Z,5.00
2018-02-03T14:38:44.595Z,4.20
2018-02-03T14:41:12.899Z,4.32
2018-02-03T14:43:40.418Z,5.05
2018-02-03T14:46:08.708Z,4.45
2018-02-03T14:48:37.000Z,5.00
2018-02-03T14:51:04.608Z,5.43
2018-02-03T14:53:32.142Z,4.82
2018-02-03T14:55:59.742Z,5.75
2018-02-03T14:58:27.287Z,4.80
2018-02-03T15:00:54.843Z,4.70
2018-02-03T15:03:22.406Z,4.30
2018-02-03T15:05:49.968Z,4.47
2018-02-03T15:08:17.544Z,4.20
2018-02-03T15:10:45.085Z,4.37
2018-02-03T15:13:12.635Z,5.55
2018-02-03T15:15:40.924Z,5.72
2018-02-03T15:18:09.268Z,4.78
2018-02-03T15:20:36.848Z,4.90
2018-02-03T15:23:05.230Z,5.47
2018-02-03T15:25:33.543Z,4.95
2018-02-03T15:28:01.076Z,6.20
2018-02-03T15:30:28.625Z,5.43
2018-02-03T15:32:56.155Z,5.70
2018-02-03T15:35:23.715Z,6.15
2018-02-03T15:37:51.237Z,6.82
2018-02-03T15:40:19.576Z,5.37
2018-02-03T15:42:47.150Z,4.25
2018-02-03T15:45:14.693Z,4.72
2018-02-03T15:47:42.191Z,4.65
2018-02-03T15:50:09.960Z,6.68
2018-02-03T15:52:38.359Z,5.45
2018-02-03T15:55:06.687Z,6.05
2018-02-03T15:57:34.233Z,7.20
2018-02-03T16:00:01.792Z,6.20
2018-02-03T16:02:30.113Z,6.55
2018-02-03T16:04:57.659Z,5.37
2018-02-03T16:07:25.257Z,5.20
2018-02-03T16:09:52.778Z,6.37
2018-02-03T16:12:20.347Z,5.43
2018-02-03T16:14:47.963Z,4.85
2018-02-03T16:17:15.522Z,5.07
2018-02-03T16:19:43.041Z,4.50
2018-02-03T16:22:11.346Z,4.00
2018-02-03T16:24:38.874Z,4.12
2018-02-03T16:27:06.383Z,4.90
2018-02-03T16:29:33.900Z,4.68
2018-02-03T16:32:02.171Z,5.18
2018-02-03T16:34:30.485Z,5.05
2018-02-03T16:36:58.016Z,5.55
2018-02-03T16:39:26.344Z,3.80
2018-02-03T16:41:53.910Z,4.80
2018-02-03T16:44:21.493Z,5.05
2018-02-03T16:46:49.022Z,4.82
2018-02-03T16:49:16.557Z,4.70
2018-02-03T16:51:44.852Z,5.07
2018-02-03T16:54:12.395Z,5.00
2018-02-03T16:56:42.648Z,5.93
2018-02-03T16:59:10.194Z,6.37
2018-02-03T17:01:38.493Z,4.32
2018-02-03T17:04:06.085Z,5.45
2018-02-03T17:06:33.613Z,5.28
2018-02-03T17:09:01.117Z,4.90
2018-02-03T17:11:29.836Z,4.30
2018-02-03T17:13:57.407Z,4.72
2018-02-03T17:16:25.695Z,5.10
2018-02-03T17:18:53.963Z,5.22
2018-02-03T17:21:21.623Z,5.03
2018-02-03T17:23:49.159Z,5.50
2018-02-03T17:26:16.668Z,6.70
2018-02-03T17:28:44.960Z,5.30
2018-02-03T17:31:13.257Z,5.32
2018-02-03T17:33:40.789Z,5.07
2018-02-03T17:36:09.105Z,5.65
2018-02-03T17:38:40.261Z,6.45
2018-02-03T17:41:07.808Z,7.87
2018-02-03T17:43:35.327Z,6.05
2018-02-03T17:46:08.516Z,5.22
2018-02-03T17:48:36.042Z,5.10
2018-02-03T17:51:03.574Z,4.75
2018-02-03T17:53:31.909Z,4.70
2018-02-03T17:56:05.233Z,4.30
2018-02-03T17:58:32.793Z,5.75
2018-02-03T18:01:00.297Z,5.43
2018-02-03T18:03:28.018Z,4.70
2018-02-03T18:05:55.557Z,4.75
2018-02-03T18:08:23.111Z,4.60
2018-02-03T18:10:50.625Z,4.55
2018-02-03T18:13:18.149Z,5.00
2018-02-03T18:15:45.671Z,5.50
2018-02-03T18:18:13.998Z,5.28
2018-02-03T18:20:41.521Z,5.32
2018-02-03T18:23:09.076Z,4.20
2018-02-03T18:25:37.354Z,4.18
2018-02-03T18:28:05.626Z,4.25
2018-02-03T18:30:33.163Z,4.85
2018-02-03T18:33:00.681Z,4.43
2018-02-03T18:35:28.216Z,4.40
2018-02-03T18:37:55.725Z,4.00
2018-02-03T18:40:23.254Z,3.95
2018-02-03T18:42:51.528Z,5.20
2018-02-03T18:48:19.414Z,4.30
2018-02-03T18:50:47.721Z,4.43
2018-02-03T18:53:15.267Z,4.12
2018-02-03T18:55:43.567Z,5.40
2018-02-03T18:58:11.090Z,4.05
2018-02-03T19:00:39.368Z,4.25
2018-02-03T19:03:06.931Z,4.57
2018-02-03T19:05:34.458Z,5.07
2018-02-03T19:08:02.049Z,4.97
2018-02-03T19:10:29.565Z,4.82
2018-02-03T19:12:57.085Z,4.78
2018-02-03T19:15:24.644Z,4.50
2018-02-03T19:17:52.196Z,5.15
2018-02-03T19:20:19.805Z,4.47
2018-02-03T19:22:47.351Z,4.70
2018-02-03T19:25:14.887Z,4.65
2018-02-03T19:27:42.509Z,4.65
2018-02-03T19:30:10.056Z,5.60
2018-02-03T19:32:37.590Z,5.72
2018-02-03T19:35:05.146Z,4.47
2018-02-03T19:37:32.671Z,4.28
2018-02-03T19:40:00.206Z,5.20
2018-02-03T19:42:27.779Z,4.15
2018-02-03T19:44:55.321Z,3.90
2018-02-03T19:47:22.953Z,3.80
2018-02-03T19:49:50.477Z,4.20
2018-02-03T19:52:18.003Z,4.15
2018-02-03T19:54:45.524Z,3.37
2018-02-03T19:57:13.299Z,3.33
2018-02-03T19:59:40.837Z,3.60
2018-02-03T20:02:08.408Z,3.10
2018-02-03T20:04:35.956Z,3.22
2018-02-03T20:07:04.280Z,3.22
2018-02-03T20:09:31.811Z,3.75
2018-02-03T20:11:59.328Z,4.10
2018-02-03T20:14:27.383Z,4.03
2018-02-03T20:16:54.929Z,3.90
2018-02-03T20:19:22.739Z,4.25
2018-02-03T20:21:50.278Z,4.22
2018-02-03T20:24:17.808Z,4.20
2018-02-03T20:26:47.254Z,4.10
2018-02-03T20:29:14.792Z,3.85
2018-02-03T20:31:42.378Z,3.90
2018-02-03T20:34:10.034Z,3.53
2018-02-03T20:36:38.003Z,4.22
2018-02-03T20:39:05.534Z,4.50
2018-02-03T20:41:33.842Z,3.70
2018-02-03T20:44:01.357Z,4.32
2018-02-03T20:46:28.912Z,4.12
2018-02-03T20:48:56.451Z,4.87
2018-02-03T20:51:24.328Z,4.03
2018-02-03T20:53:51.872Z,4.53
2018-02-03T20:56:19.415Z,3.78
2018-02-03T20:58:47.706Z,3.65
2018-02-03T21:01:15.302Z,5.65
2018-02-03T21:03:42.876Z,4.25
2018-02-03T21:06:10.389Z,3.47
2018-02-03T21:08:38.728Z,3.33
2018-02-03T21:11:06.291Z,3.78
2018-02-03T21:13:33.846Z,4.07
2018-02-03T21:16:01.385Z,3.42
2018-02-03T21:18:28.978Z,3.42
2018-02-03T21:20:56.527Z,3.65
2018-02-03T21:23:24.081Z,3.45
2018-02-03T21:25:51.571Z,4.05
2018-02-03T21:28:19.121Z,3.70
2018-02-03T21:30:46.620Z,3.60
2018-02-03T21:33:14.132Z,4.03
2018-02-03T21:35:41.677Z,3.85
2018-02-03T21:38:09.946Z,3.35
2018-02-03T21:40:38.239Z,3.22
2018-02-03T21:43:06.546Z,3.85
2018-02-03T21:45:34.986Z,4.22
2018-02-03T21:48:03.269Z,3.60
2018-02-03T21:50:31.582Z,3.50
2018-02-03T21:52:59.077Z,3.25
2018-02-03T21:55:26.627Z,3.22
2018-02-03T21:57:54.145Z,3.42
2018-02-03T22:00:22.428Z,4.55
2018-02-03T22:02:50.704Z,4.12
2018-02-03T22:05:19.037Z,4.25
2018-02-03T22:07:46.541Z,3.83
2018-02-03T22:10:14.913Z,3.95
2018-02-03T22:12:42.439Z,4.57
2018-02-03T22:15:09.991Z,5.55
2018-02-03T22:17:37.528Z,4.75
2018-02-03T22:20:05.855Z,3.60
2018-02-03T22:22:33.419Z,4.70
2018-02-03T22:25:00.908Z,3.90
2018-02-03T22:27:28.640Z,3.85
2018-02-03T22:29:56.999Z,4.37
2018-02-03T22:32:25.255Z,3.50
2018-02-03T22:34:52.781Z,3.72
2018-02-03T22:37:20.309Z,4.18
2018-02-03T22:39:47.826Z,3.97
2018-02-03T22:42:16.083Z,3.65
2018-02-03T22:44:43.606Z,3.90
2018-02-03T22:47:11.867Z,4.15
2018-02-03T22:49:39.396Z,4.62
2018-02-03T22:52:06.904Z,3.53
2018-02-03T22:54:34.413Z,5.07
2018-02-03T22:57:02.048Z,4.25
2018-02-03T22:59:30.341Z,4.62
2018-02-03T23:01:57.932Z,3.85
2018-02-03T23:04:25.514Z,4.80
2018-02-03T23:06:53.064Z,3.70
2018-02-03T23:09:20.640Z,4.53
2018-02-03T23:11:48.218Z,5.12
2018-02-03T23:14:15.842Z,4.05
2018-02-03T23:16:43.386Z,4.30
2018-02-03T23:19:10.924Z,4.20
2018-02-03T23:21:39.284Z,3.45
2018-02-03T23:24:06.803Z,3.05
2018-02-03T23:26:34.401Z,3.80
2018-02-03T23:29:01.960Z,3.87
2018-02-03T23:31:31.970Z,3.53
2018-02-03T23:33:59.602Z,3.47
2018-02-03T23:36:27.878Z,3.50
2018-02-03T23:38:56.189Z,3.87
2018-02-03T23:41:23.711Z,3.47
2018-02-03T23:43:51.200Z,4.25
2018-02-03T23:46:19.477Z,3.45
2018-02-03T23:48:47.734Z,3.40
2018-02-03T23:51:15.278Z,3.47
2018-02-03T23:53:42.844Z,3.97
2018-02-03T23:56:10.349Z,2.97
2018-02-03T23:58:38.628Z,3.85
